sensor_id;sensor_type;location;lat;lon;timestamp;P1;durP1;ratioP1;P2;durP2;ratioP2
37931;SDS011;23758;42.640;23.302;2023-05-20T00:02:08;2.55;;;2.42;;
37931;SDS011;23758;42.640;23.302;2023-05-20T00:04:33;3.03;;;2.80;;
37931;SDS011;23758;42.640;23.302;2023-05-20T00:06:59;2.53;;;2.40;;
37931;SDS011;23758;42.640;23.302;2023-05-20T00:09:24;2.63;;;2.42;;
37931;SDS011;23758;42.640;23.302;2023-05-20T00:11:50;2.70;;;2.50;;
37931;SDS011;23758;42.640;23.302;2023-05-20T00:14:15;2.67;;;2.47;;
37931;SDS011;23758;42.640;23.302;2023-05-20T00:16:41;2.75;;;2.55;;
37931;SDS011;23758;42.640;23.302;2023-05-20T00:19:07;2.55;;;2.40;;
37931;SDS011;23758;42.640;23.302;2023-05-20T00:21:33;2.88;;;2.53;;
37931;SDS011;23758;42.640;23.302;2023-05-20T00:23:58;2.70;;;2.50;;
37931;SDS011;23758;42.640;23.302;2023-05-20T00:26:24;4.47;;;3.90;;
37931;SDS011;23758;42.640;23.302;2023-05-20T00:28:50;2.42;;;2.33;;
37931;SDS011;23758;42.640;23.302;2023-05-20T00:31:16;2.85;;;2.65;;
37931;SDS011;23758;42.640;23.302;2023-05-20T00:33:41;3.10;;;2.90;;
37931;SDS011;23758;42.640;23.302;2023-05-20T00:36:06;2.90;;;2.70;;
37931;SDS011;23758;42.640;23.302;2023-05-20T00:38:32;2.78;;;2.58;;
37931;SDS011;23758;42.640;23.302;2023-05-20T00:40:58;2.80;;;2.60;;
37931;SDS011;23758;42.640;23.302;2023-05-20T00:43:24;2.80;;;2.60;;
37931;SDS011;23758;42.640;23.302;2023-05-20T00:45:51;2.85;;;2.65;;
37931;SDS011;23758;42.640;23.302;2023-05-20T00:48:17;2.72;;;2.53;;
37931;SDS011;23758;42.640;23.302;2023-05-20T00:50:42;2.67;;;2.47;;
37931;SDS011;23758;42.640;23.302;2023-05-20T00:53:08;3.03;;;2.83;;
37931;SDS011;23758;42.640;23.302;2023-05-20T00:55:34;2.80;;;2.60;;
37931;SDS011;23758;42.640;23.302;2023-05-20T00:57:59;2.65;;;2.45;;
37931;SDS011;23758;42.640;23.302;2023-05-20T01:00:25;3.10;;;2.90;;
37931;SDS011;23758;42.640;23.302;2023-05-20T01:02:51;2.83;;;2.63;;
37931;SDS011;23758;42.640;23.302;2023-05-20T01:05:16;2.80;;;2.60;;
37931;SDS011;23758;42.640;23.302;2023-05-20T01:07:42;2.80;;;2.60;;
37931;SDS011;23758;42.640;23.302;2023-05-20T01:10:08;2.70;;;2.50;;
37931;SDS011;23758;42.640;23.302;2023-05-20T01:12:47;3.15;;;2.50;;
37931;SDS011;23758;42.640;23.302;2023-05-20T01:15:14;2.80;;;2.60;;
37931;SDS011;23758;42.640;23.302;2023-05-20T01:17:43;2.83;;;2.63;;
37931;SDS011;23758;42.640;23.302;2023-05-20T01:20:11;2.80;;;2.60;;
37931;SDS011;23758;42.640;23.302;2023-05-20T01:22:47;2.83;;;2.63;;
37931;SDS011;23758;42.640;23.302;2023-05-20T01:25:14;3.50;;;3.20;;
37931;SDS011;23758;42.640;23.302;2023-05-20T01:27:40;3.03;;;2.83;;
37931;SDS011;23758;42.640;23.302;2023-05-20T01:30:05;2.88;;;2.67;;
37931;SDS011;23758;42.640;23.302;2023-05-20T01:32:33;3.10;;;2.90;;
37931;SDS011;23758;42.640;23.302;2023-05-20T01:35:01;3.05;;;2.85;;
37931;SDS011;23758;42.640;23.302;2023-05-20T01:37:27;3.40;;;3.08;;
37931;SDS011;23758;42.640;23.302;2023-05-20T01:39:53;3.08;;;2.78;;
37931;SDS011;23758;42.640;23.302;2023-05-20T01:42:19;3.47;;;3.17;;
37931;SDS011;23758;42.640;23.302;2023-05-20T01:44:45;2.70;;;2.50;;
37931;SDS011;23758;42.640;23.302;2023-05-20T01:47:10;2.80;;;2.60;;
37931;SDS011;23758;42.640;23.302;2023-05-20T01:49:36;3.13;;;2.92;;
37931;SDS011;23758;42.640;23.302;2023-05-20T01:52:01;2.92;;;2.72;;
37931;SDS011;23758;42.640;23.302;2023-05-20T01:54:27;2.78;;;2.58;;
37931;SDS011;23758;42.640;23.302;2023-05-20T01:56:52;3.40;;;3.17;;
37931;SDS011;23758;42.640;23.302;2023-05-20T01:59:18;2.70;;;2.50;;
37931;SDS011;23758;42.640;23.302;2023-05-20T02:01:43;2.70;;;2.50;;
37931;SDS011;23758;42.640;23.302;2023-05-20T02:04:10;2.80;;;2.60;;
37931;SDS011;23758;42.640;23.302;2023-05-20T02:06:35;2.70;;;2.50;;
37931;SDS011;23758;42.640;23.302;2023-05-20T02:09:01;2.65;;;2.45;;
37931;SDS011;23758;42.640;23.302;2023-05-20T02:11:26;3.00;;;2.80;;
37931;SDS011;23758;42.640;23.302;2023-05-20T02:13:52;2.67;;;2.47;;
37931;SDS011;23758;42.640;23.302;2023-05-20T02:16:17;2.80;;;2.60;;
37931;SDS011;23758;42.640;23.302;2023-05-20T02:18:43;2.70;;;2.50;;
37931;SDS011;23758;42.640;23.302;2023-05-20T02:21:08;2.90;;;2.70;;
37931;SDS011;23758;42.640;23.302;2023-05-20T02:23:34;2.72;;;2.53;;
37931;SDS011;23758;42.640;23.302;2023-05-20T02:26:00;3.35;;;3.05;;
37931;SDS011;23758;42.640;23.302;2023-05-20T02:28:25;3.45;;;2.72;;
37931;SDS011;23758;42.640;23.302;2023-05-20T02:30:51;3.25;;;3.05;;
37931;SDS011;23758;42.640;23.302;2023-05-20T02:33:17;2.80;;;2.60;;
37931;SDS011;23758;42.640;23.302;2023-05-20T02:35:45;2.70;;;2.50;;
37931;SDS011;23758;42.640;23.302;2023-05-20T02:38:11;2.80;;;2.60;;
37931;SDS011;23758;42.640;23.302;2023-05-20T02:40:36;2.70;;;2.50;;
37931;SDS011;23758;42.640;23.302;2023-05-20T02:43:02;2.80;;;2.60;;
37931;SDS011;23758;42.640;23.302;2023-05-20T02:45:28;3.15;;;2.95;;
37931;SDS011;23758;42.640;23.302;2023-05-20T02:47:53;2.85;;;2.65;;
37931;SDS011;23758;42.640;23.302;2023-05-20T02:50:19;2.95;;;2.75;;
37931;SDS011;23758;42.640;23.302;2023-05-20T02:52:44;2.90;;;2.70;;
37931;SDS011;23758;42.640;23.302;2023-05-20T02:55:11;3.17;;;2.97;;
37931;SDS011;23758;42.640;23.302;2023-05-20T02:57:37;2.92;;;2.72;;
37931;SDS011;23758;42.640;23.302;2023-05-20T03:00:03;3.00;;;2.80;;
37931;SDS011;23758;42.640;23.302;2023-05-20T03:02:32;2.85;;;2.65;;
37931;SDS011;23758;42.640;23.302;2023-05-20T03:04:57;2.85;;;2.65;;
37931;SDS011;23758;42.640;23.302;2023-05-20T03:07:23;2.92;;;2.72;;
37931;SDS011;23758;42.640;23.302;2023-05-20T03:09:49;3.20;;;3.00;;
37931;SDS011;23758;42.640;23.302;2023-05-20T03:12:15;3.00;;;2.80;;
37931;SDS011;23758;42.640;23.302;2023-05-20T03:14:40;2.80;;;2.60;;
37931;SDS011;23758;42.640;23.302;2023-05-20T03:17:07;2.95;;;2.75;;
37931;SDS011;23758;42.640;23.302;2023-05-20T03:19:33;2.70;;;2.50;;
37931;SDS011;23758;42.640;23.302;2023-05-20T03:21:59;2.80;;;2.60;;
37931;SDS011;23758;42.640;23.302;2023-05-20T03:24:25;3.20;;;3.00;;
37931;SDS011;23758;42.640;23.302;2023-05-20T03:26:51;3.30;;;3.10;;
37931;SDS011;23758;42.640;23.302;2023-05-20T03:29:16;3.05;;;2.85;;
37931;SDS011;23758;42.640;23.302;2023-05-20T03:31:42;2.95;;;2.75;;
37931;SDS011;23758;42.640;23.302;2023-05-20T03:34:07;3.00;;;2.80;;
37931;SDS011;23758;42.640;23.302;2023-05-20T03:36:33;2.90;;;2.70;;
37931;SDS011;23758;42.640;23.302;2023-05-20T03:38:58;2.80;;;2.60;;
37931;SDS011;23758;42.640;23.302;2023-05-20T03:41:24;2.97;;;2.78;;
37931;SDS011;23758;42.640;23.302;2023-05-20T03:43:50;2.80;;;2.60;;
37931;SDS011;23758;42.640;23.302;2023-05-20T03:46:15;3.03;;;2.83;;
37931;SDS011;23758;42.640;23.302;2023-05-20T03:48:41;2.80;;;2.60;;
37931;SDS011;23758;42.640;23.302;2023-05-20T03:51:06;3.42;;;3.13;;
37931;SDS011;23758;42.640;23.302;2023-05-20T03:53:32;2.83;;;2.63;;
37931;SDS011;23758;42.640;23.302;2023-05-20T03:55:57;2.60;;;2.40;;
37931;SDS011;23758;42.640;23.302;2023-05-20T03:58:23;3.10;;;2.90;;
37931;SDS011;23758;42.640;23.302;2023-05-20T04:00:49;2.70;;;2.50;;
37931;SDS011;23758;42.640;23.302;2023-05-20T04:03:14;2.70;;;2.50;;
37931;SDS011;23758;42.640;23.302;2023-05-20T04:05:40;2.47;;;2.38;;
37931;SDS011;23758;42.640;23.302;2023-05-20T04:08:05;2.70;;;2.50;;
37931;SDS011;23758;42.640;23.302;2023-05-20T04:10:31;2.60;;;2.40;;
37931;SDS011;23758;42.640;23.302;2023-05-20T04:12:57;2.30;;;2.20;;
37931;SDS011;23758;42.640;23.302;2023-05-20T04:15:22;2.20;;;2.10;;
37931;SDS011;23758;42.640;23.302;2023-05-20T04:17:49;2.55;;;2.35;;
37931;SDS011;23758;42.640;23.302;2023-05-20T04:20:16;2.50;;;2.30;;
37931;SDS011;23758;42.640;23.302;2023-05-20T04:22:43;2.90;;;2.70;;
37931;SDS011;23758;42.640;23.302;2023-05-20T04:25:08;3.25;;;2.78;;
37931;SDS011;23758;42.640;23.302;2023-05-20T04:27:34;2.53;;;2.35;;
37931;SDS011;23758;42.640;23.302;2023-05-20T04:30:01;2.60;;;2.40;;
37931;SDS011;23758;42.640;23.302;2023-05-20T04:32:29;2.72;;;2.53;;
37931;SDS011;23758;42.640;23.302;2023-05-20T04:34:54;2.95;;;2.75;;
37931;SDS011;23758;42.640;23.302;2023-05-20T04:37:23;2.67;;;2.47;;
37931;SDS011;23758;42.640;23.302;2023-05-20T04:39:49;2.00;;;1.90;;
37931;SDS011;23758;42.640;23.302;2023-05-20T04:42:15;2.13;;;2.03;;
37931;SDS011;23758;42.640;23.302;2023-05-20T04:44:45;2.15;;;2.05;;
37931;SDS011;23758;42.640;23.302;2023-05-20T04:47:12;2.15;;;1.95;;
37931;SDS011;23758;42.640;23.302;2023-05-20T04:49:38;1.80;;;1.70;;
37931;SDS011;23758;42.640;23.302;2023-05-20T04:52:03;1.77;;;1.67;;
37931;SDS011;23758;42.640;23.302;2023-05-20T04:54:29;2.45;;;2.00;;
37931;SDS011;23758;42.640;23.302;2023-05-20T04:56:56;1.98;;;1.88;;
37931;SDS011;23758;42.640;23.302;2023-05-20T04:59:22;2.08;;;1.98;;
37931;SDS011;23758;42.640;23.302;2023-05-20T05:01:48;2.05;;;1.95;;
37931;SDS011;23758;42.640;23.302;2023-05-20T05:04:13;4.03;;;2.05;;
37931;SDS011;23758;42.640;23.302;2023-05-20T05:06:39;1.80;;;1.70;;
37931;SDS011;23758;42.640;23.302;2023-05-20T05:09:04;1.83;;;1.73;;
37931;SDS011;23758;42.640;23.302;2023-05-20T05:11:30;1.77;;;1.60;;
37931;SDS011;23758;42.640;23.302;2023-05-20T05:13:55;1.70;;;1.60;;
37931;SDS011;23758;42.640;23.302;2023-05-20T05:16:21;1.67;;;1.58;;
37931;SDS011;23758;42.640;23.302;2023-05-20T05:18:46;1.60;;;1.50;;
37931;SDS011;23758;42.640;23.302;2023-05-20T05:21:12;1.77;;;1.67;;
37931;SDS011;23758;42.640;23.302;2023-05-20T05:23:37;2.08;;;1.90;;
37931;SDS011;23758;42.640;23.302;2023-05-20T05:26:03;1.70;;;1.60;;
37931;SDS011;23758;42.640;23.302;2023-05-20T05:28:28;2.00;;;1.90;;
37931;SDS011;23758;42.640;23.302;2023-05-20T05:30:54;3.25;;;2.13;;
37931;SDS011;23758;42.640;23.302;2023-05-20T05:33:22;1.58;;;1.48;;
37931;SDS011;23758;42.640;23.302;2023-05-20T05:35:48;1.80;;;1.70;;
37931;SDS011;23758;42.640;23.302;2023-05-20T05:38:15;3.38;;;2.35;;
37931;SDS011;23758;42.640;23.302;2023-05-20T05:40:40;1.60;;;1.50;;
37931;SDS011;23758;42.640;23.302;2023-05-20T05:43:06;2.40;;;1.88;;
37931;SDS011;23758;42.640;23.302;2023-05-20T05:45:31;2.03;;;1.92;;
37931;SDS011;23758;42.640;23.302;2023-05-20T05:47:57;2.17;;;2.08;;
37931;SDS011;23758;42.640;23.302;2023-05-20T05:50:22;2.00;;;1.90;;
37931;SDS011;23758;42.640;23.302;2023-05-20T05:52:48;2.35;;;2.17;;
37931;SDS011;23758;42.640;23.302;2023-05-20T05:55:13;2.10;;;2.00;;
37931;SDS011;23758;42.640;23.302;2023-05-20T05:57:39;2.30;;;2.20;;
37931;SDS011;23758;42.640;23.302;2023-05-20T06:00:04;2.33;;;2.20;;
37931;SDS011;23758;42.640;23.302;2023-05-20T06:02:30;3.38;;;2.72;;
37931;SDS011;23758;42.640;23.302;2023-05-20T06:05:00;2.30;;;2.20;;
37931;SDS011;23758;42.640;23.302;2023-05-20T06:07:26;2.10;;;2.00;;
37931;SDS011;23758;42.640;23.302;2023-05-20T06:09:52;2.40;;;2.30;;
37931;SDS011;23758;42.640;23.302;2023-05-20T06:12:17;2.10;;;2.00;;
37931;SDS011;23758;42.640;23.302;2023-05-20T06:14:43;2.35;;;2.25;;
37931;SDS011;23758;42.640;23.302;2023-05-20T06:17:08;2.35;;;2.25;;
37931;SDS011;23758;42.640;23.302;2023-05-20T06:19:33;2.20;;;2.10;;
37931;SDS011;23758;42.640;23.302;2023-05-20T06:21:59;2.33;;;2.22;;
37931;SDS011;23758;42.640;23.302;2023-05-20T06:24:24;3.42;;;2.40;;
37931;SDS011;23758;42.640;23.302;2023-05-20T06:26:50;2.10;;;2.00;;
37931;SDS011;23758;42.640;23.302;2023-05-20T06:29:16;2.20;;;2.10;;
37931;SDS011;23758;42.640;23.302;2023-05-20T06:31:41;2.30;;;2.13;;
37931;SDS011;23758;42.640;23.302;2023-05-20T06:34:07;2.20;;;2.10;;
37931;SDS011;23758;42.640;23.302;2023-05-20T06:36:32;2.17;;;2.08;;
37931;SDS011;23758;42.640;23.302;2023-05-20T06:38:58;2.80;;;2.60;;
37931;SDS011;23758;42.640;23.302;2023-05-20T06:41:23;2.30;;;2.20;;
37931;SDS011;23758;42.640;23.302;2023-05-20T06:43:49;2.35;;;2.25;;
37931;SDS011;23758;42.640;23.302;2023-05-20T06:46:14;2.65;;;2.40;;
37931;SDS011;23758;42.640;23.302;2023-05-20T06:48:40;2.25;;;2.15;;
37931;SDS011;23758;42.640;23.302;2023-05-20T06:51:08;3.00;;;2.63;;
37931;SDS011;23758;42.640;23.302;2023-05-20T06:53:34;2.40;;;2.28;;
37931;SDS011;23758;42.640;23.302;2023-05-20T06:56:00;5.82;;;3.13;;
37931;SDS011;23758;42.640;23.302;2023-05-20T06:58:26;2.20;;;2.00;;
37931;SDS011;23758;42.640;23.302;2023-05-20T07:00:52;2.13;;;2.03;;
37931;SDS011;23758;42.640;23.302;2023-05-20T07:03:17;2.10;;;2.00;;
37931;SDS011;23758;42.640;23.302;2023-05-20T07:05:43;2.40;;;2.30;;
37931;SDS011;23758;42.640;23.302;2023-05-20T07:08:09;2.65;;;2.45;;
37931;SDS011;23758;42.640;23.302;2023-05-20T07:10:35;2.20;;;2.10;;
37931;SDS011;23758;42.640;23.302;2023-05-20T07:13:00;2.30;;;2.10;;
37931;SDS011;23758;42.640;23.302;2023-05-20T07:15:26;2.60;;;2.40;;
37931;SDS011;23758;42.640;23.302;2023-05-20T07:17:51;9.93;;;2.42;;
37931;SDS011;23758;42.640;23.302;2023-05-20T07:20:17;2.20;;;2.10;;
37931;SDS011;23758;42.640;23.302;2023-05-20T07:22:43;2.53;;;2.33;;
37931;SDS011;23758;42.640;23.302;2023-05-20T07:25:08;2.30;;;2.20;;
37931;SDS011;23758;42.640;23.302;2023-05-20T07:27:34;2.00;;;1.90;;
37931;SDS011;23758;42.640;23.302;2023-05-20T07:30:00;2.20;;;2.03;;
37931;SDS011;23758;42.640;23.302;2023-05-20T07:32:25;2.67;;;2.47;;
37931;SDS011;23758;42.640;23.302;2023-05-20T07:34:51;2.35;;;2.20;;
37931;SDS011;23758;42.640;23.302;2023-05-20T07:37:17;2.60;;;2.40;;
37931;SDS011;23758;42.640;23.302;2023-05-20T07:39:42;2.22;;;2.05;;
37931;SDS011;23758;42.640;23.302;2023-05-20T07:42:08;2.85;;;2.28;;
37931;SDS011;23758;42.640;23.302;2023-05-20T07:44:33;2.50;;;2.30;;
37931;SDS011;23758;42.640;23.302;2023-05-20T07:46:59;2.35;;;2.15;;
37931;SDS011;23758;42.640;23.302;2023-05-20T07:49:25;2.20;;;2.10;;
37931;SDS011;23758;42.640;23.302;2023-05-20T07:51:50;2.28;;;2.08;;
37931;SDS011;23758;42.640;23.302;2023-05-20T07:54:16;2.10;;;2.00;;
37931;SDS011;23758;42.640;23.302;2023-05-20T07:56:41;3.25;;;2.50;;
37931;SDS011;23758;42.640;23.302;2023-05-20T07:59:07;2.53;;;2.33;;
37931;SDS011;23758;42.640;23.302;2023-05-20T08:01:32;1.98;;;1.88;;
37931;SDS011;23758;42.640;23.302;2023-05-20T08:03:58;2.28;;;2.17;;
37931;SDS011;23758;42.640;23.302;2023-05-20T08:06:24;1.85;;;1.75;;
37931;SDS011;23758;42.640;23.302;2023-05-20T08:08:50;1.70;;;1.60;;
37931;SDS011;23758;42.640;23.302;2023-05-20T08:11:18;1.95;;;1.85;;
37931;SDS011;23758;42.640;23.302;2023-05-20T08:13:45;2.05;;;1.95;;
37931;SDS011;23758;42.640;23.302;2023-05-20T08:16:10;1.92;;;1.83;;
37931;SDS011;23758;42.640;23.302;2023-05-20T08:18:36;2.38;;;2.17;;
37931;SDS011;23758;42.640;23.302;2023-05-20T08:21:02;1.50;;;1.40;;
37931;SDS011;23758;42.640;23.302;2023-05-20T08:23:27;1.60;;;1.50;;
37931;SDS011;23758;42.640;23.302;2023-05-20T08:25:52;1.80;;;1.70;;
37931;SDS011;23758;42.640;23.302;2023-05-20T08:28:18;1.65;;;1.55;;
37931;SDS011;23758;42.640;23.302;2023-05-20T08:30:43;2.28;;;2.08;;
37931;SDS011;23758;42.640;23.302;2023-05-20T08:33:09;1.63;;;1.52;;
37931;SDS011;23758;42.640;23.302;2023-05-20T08:35:35;1.63;;;1.52;;
37931;SDS011;23758;42.640;23.302;2023-05-20T08:38:03;1.63;;;1.52;;
37931;SDS011;23758;42.640;23.302;2023-05-20T08:40:29;4.22;;;2.45;;
37931;SDS011;23758;42.640;23.302;2023-05-20T08:42:55;1.95;;;1.85;;
37931;SDS011;23758;42.640;23.302;2023-05-20T08:45:22;1.83;;;1.73;;
37931;SDS011;23758;42.640;23.302;2023-05-20T08:47:51;1.88;;;1.77;;
37931;SDS011;23758;42.640;23.302;2023-05-20T08:50:17;1.70;;;1.60;;
37931;SDS011;23758;42.640;23.302;2023-05-20T08:52:43;1.90;;;1.80;;
37931;SDS011;23758;42.640;23.302;2023-05-20T08:55:14;1.63;;;1.52;;
37931;SDS011;23758;42.640;23.302;2023-05-20T08:57:46;1.60;;;1.50;;
37931;SDS011;23758;42.640;23.302;2023-05-20T09:00:14;1.77;;;1.67;;
37931;SDS011;23758;42.640;23.302;2023-05-20T09:02:41;1.67;;;1.58;;
37931;SDS011;23758;42.640;23.302;2023-05-20T09:05:08;1.50;;;1.40;;
37931;SDS011;23758;42.640;23.302;2023-05-20T09:07:35;2.70;;;2.05;;
37931;SDS011;23758;42.640;23.302;2023-05-20T09:10:00;1.60;;;1.50;;
37931;SDS011;23758;42.640;23.302;2023-05-20T09:12:26;1.63;;;1.52;;
37931;SDS011;23758;42.640;23.302;2023-05-20T09:14:51;1.50;;;1.40;;
37931;SDS011;23758;42.640;23.302;2023-05-20T09:17:17;1.67;;;1.58;;
37931;SDS011;23758;42.640;23.302;2023-05-20T09:19:42;1.67;;;1.58;;
37931;SDS011;23758;42.640;23.302;2023-05-20T09:22:08;1.50;;;1.40;;
37931;SDS011;23758;42.640;23.302;2023-05-20T09:24:34;1.63;;;1.52;;
37931;SDS011;23758;42.640;23.302;2023-05-20T09:26:59;1.70;;;1.60;;
37931;SDS011;23758;42.640;23.302;2023-05-20T09:29:25;1.88;;;1.77;;
37931;SDS011;23758;42.640;23.302;2023-05-20T09:31:50;1.75;;;1.65;;
37931;SDS011;23758;42.640;23.302;2023-05-20T09:34:17;1.85;;;1.75;;
37931;SDS011;23758;42.640;23.302;2023-05-20T09:36:44;1.70;;;1.60;;
37931;SDS011;23758;42.640;23.302;2023-05-20T09:39:15;1.58;;;1.48;;
37931;SDS011;23758;42.640;23.302;2023-05-20T09:44:26;1.73;;;1.63;;
37931;SDS011;23758;42.640;23.302;2023-05-20T09:46:53;1.65;;;1.55;;
37931;SDS011;23758;42.640;23.302;2023-05-20T09:49:20;1.88;;;1.77;;
37931;SDS011;23758;42.640;23.302;2023-05-20T09:51:47;1.95;;;1.77;;
37931;SDS011;23758;42.640;23.302;2023-05-20T09:54:13;1.60;;;1.50;;
37931;SDS011;23758;42.640;23.302;2023-05-20T09:56:40;1.50;;;1.40;;
37931;SDS011;23758;42.640;23.302;2023-05-20T09:59:06;1.70;;;1.60;;
37931;SDS011;23758;42.640;23.302;2023-05-20T10:01:32;1.73;;;1.63;;
37931;SDS011;23758;42.640;23.302;2023-05-20T10:03:57;1.83;;;1.73;;
37931;SDS011;23758;42.640;23.302;2023-05-20T10:14:55;1.77;;;1.67;;
37931;SDS011;23758;42.640;23.302;2023-05-20T10:19:59;1.85;;;1.75;;
37931;SDS011;23758;42.640;23.302;2023-05-20T10:22:26;1.77;;;1.67;;
37931;SDS011;23758;42.640;23.302;2023-05-20T10:25:04;1.95;;;1.85;;
37931;SDS011;23758;42.640;23.302;2023-05-20T10:27:41;1.65;;;1.55;;
37931;SDS011;23758;42.640;23.302;2023-05-20T10:30:14;2.03;;;1.92;;
37931;SDS011;23758;42.640;23.302;2023-05-20T10:32:47;1.95;;;1.77;;
37931;SDS011;23758;42.640;23.302;2023-05-20T10:35:24;1.80;;;1.70;;
37931;SDS011;23758;42.640;23.302;2023-05-20T10:37:51;1.80;;;1.70;;
37931;SDS011;23758;42.640;23.302;2023-05-20T10:40:18;2.22;;;2.03;;
37931;SDS011;23758;42.640;23.302;2023-05-20T10:42:45;6.00;;;1.83;;
37931;SDS011;23758;42.640;23.302;2023-05-20T10:45:23;2.17;;;2.00;;
37931;SDS011;23758;42.640;23.302;2023-05-20T10:47:56;1.90;;;1.80;;
37931;SDS011;23758;42.640;23.302;2023-05-20T10:50:35;1.95;;;1.85;;
37931;SDS011;23758;42.640;23.302;2023-05-20T10:53:04;1.75;;;1.65;;
37931;SDS011;23758;42.640;23.302;2023-05-20T10:55:34;1.88;;;1.77;;
37931;SDS011;23758;42.640;23.302;2023-05-20T10:58:01;1.65;;;1.55;;
37931;SDS011;23758;42.640;23.302;2023-05-20T11:00:27;2.35;;;2.20;;
37931;SDS011;23758;42.640;23.302;2023-05-20T11:02:52;3.38;;;1.90;;
37931;SDS011;23758;42.640;23.302;2023-05-20T11:05:19;1.92;;;1.83;;
37931;SDS011;23758;42.640;23.302;2023-05-20T11:07:45;1.73;;;1.60;;
37931;SDS011;23758;42.640;23.302;2023-05-20T11:10:10;2.00;;;1.90;;
37931;SDS011;23758;42.640;23.302;2023-05-20T11:12:36;1.77;;;1.67;;
37931;SDS011;23758;42.640;23.302;2023-05-20T11:15:01;2.08;;;1.98;;
37931;SDS011;23758;42.640;23.302;2023-05-20T11:17:27;1.80;;;1.70;;
37931;SDS011;23758;42.640;23.302;2023-05-20T11:19:52;2.00;;;1.90;;
37931;SDS011;23758;42.640;23.302;2023-05-20T11:22:18;1.80;;;1.70;;
37931;SDS011;23758;42.640;23.302;2023-05-20T11:24:43;1.67;;;1.58;;
37931;SDS011;23758;42.640;23.302;2023-05-20T11:27:10;1.65;;;1.55;;
37931;SDS011;23758;42.640;23.302;2023-05-20T11:29:35;1.75;;;1.65;;
37931;SDS011;23758;42.640;23.302;2023-05-20T11:32:02;1.88;;;1.77;;
37931;SDS011;23758;42.640;23.302;2023-05-20T11:34:34;1.80;;;1.70;;
37931;SDS011;23758;42.640;23.302;2023-05-20T11:37:00;1.55;;;1.45;;
37931;SDS011;23758;42.640;23.302;2023-05-20T11:39:29;1.80;;;1.70;;
37931;SDS011;23758;42.640;23.302;2023-05-20T11:41:55;1.92;;;1.83;;
37931;SDS011;23758;42.640;23.302;2023-05-20T11:44:21;1.80;;;1.70;;
37931;SDS011;23758;42.640;23.302;2023-05-20T11:46:46;1.70;;;1.60;;
37931;SDS011;23758;42.640;23.302;2023-05-20T11:49:13;1.85;;;1.73;;
37931;SDS011;23758;42.640;23.302;2023-05-20T11:51:38;1.77;;;1.67;;
37931;SDS011;23758;42.640;23.302;2023-05-20T11:54:07;1.85;;;1.75;;
37931;SDS011;23758;42.640;23.302;2023-05-20T11:56:36;1.65;;;1.55;;
37931;SDS011;23758;42.640;23.302;2023-05-20T11:59:03;1.70;;;1.60;;
37931;SDS011;23758;42.640;23.302;2023-05-20T12:01:30;1.88;;;1.77;;
37931;SDS011;23758;42.640;23.302;2023-05-20T12:04:10;1.90;;;1.80;;
37931;SDS011;23758;42.640;23.302;2023-05-20T12:06:37;1.98;;;1.80;;
37931;SDS011;23758;42.640;23.302;2023-05-20T12:09:04;2.05;;;1.95;;
37931;SDS011;23758;42.640;23.302;2023-05-20T12:11:34;2.30;;;2.10;;
37931;SDS011;23758;42.640;23.302;2023-05-20T12:14:04;1.90;;;1.80;;
37931;SDS011;23758;42.640;23.302;2023-05-20T12:16:30;2.00;;;1.90;;
37931;SDS011;23758;42.640;23.302;2023-05-20T12:18:57;2.10;;;2.00;;
37931;SDS011;23758;42.640;23.302;2023-05-20T12:21:22;1.92;;;1.83;;
37931;SDS011;23758;42.640;23.302;2023-05-20T12:23:48;2.90;;;2.40;;
37931;SDS011;23758;42.640;23.302;2023-05-20T12:26:13;1.80;;;1.70;;
37931;SDS011;23758;42.640;23.302;2023-05-20T12:28:39;2.05;;;1.95;;
37931;SDS011;23758;42.640;23.302;2023-05-20T12:31:04;1.83;;;1.73;;
37931;SDS011;23758;42.640;23.302;2023-05-20T12:33:30;2.38;;;2.22;;
37931;SDS011;23758;42.640;23.302;2023-05-20T12:35:56;1.80;;;1.70;;
37931;SDS011;23758;42.640;23.302;2023-05-20T12:38:21;2.00;;;1.90;;
37931;SDS011;23758;42.640;23.302;2023-05-20T12:40:47;5.10;;;2.58;;
37931;SDS011;23758;42.640;23.302;2023-05-20T12:43:12;2.35;;;2.20;;
37931;SDS011;23758;42.640;23.302;2023-05-20T12:45:38;2.00;;;1.90;;
37931;SDS011;23758;42.640;23.302;2023-05-20T12:48:03;2.25;;;2.15;;
37931;SDS011;23758;42.640;23.302;2023-05-20T12:50:31;1.92;;;1.83;;
37931;SDS011;23758;42.640;23.302;2023-05-20T12:52:56;2.50;;;2.30;;
37931;SDS011;23758;42.640;23.302;2023-05-20T12:55:22;3.65;;;2.50;;
37931;SDS011;23758;42.640;23.302;2023-05-20T12:57:47;2.30;;;1.90;;
37931;SDS011;23758;42.640;23.302;2023-05-20T13:00:13;2.20;;;2.00;;
37931;SDS011;23758;42.640;23.302;2023-05-20T13:02:40;1.98;;;1.88;;
37931;SDS011;23758;42.640;23.302;2023-05-20T13:05:06;2.10;;;2.00;;
37931;SDS011;23758;42.640;23.302;2023-05-20T13:07:32;1.85;;;1.75;;
37931;SDS011;23758;42.640;23.302;2023-05-20T13:09:58;2.20;;;2.10;;
37931;SDS011;23758;42.640;23.302;2023-05-20T13:12:23;2.45;;;2.08;;
37931;SDS011;23758;42.640;23.302;2023-05-20T13:14:49;1.83;;;1.73;;
37931;SDS011;23758;42.640;23.302;2023-05-20T13:17:14;1.90;;;1.80;;
37931;SDS011;23758;42.640;23.302;2023-05-20T13:19:40;1.90;;;1.80;;
37931;SDS011;23758;42.640;23.302;2023-05-20T13:22:06;2.00;;;1.90;;
37931;SDS011;23758;42.640;23.302;2023-05-20T13:24:33;1.85;;;1.75;;
37931;SDS011;23758;42.640;23.302;2023-05-20T13:26:58;2.00;;;1.90;;
37931;SDS011;23758;42.640;23.302;2023-05-20T13:29:25;1.80;;;1.70;;
37931;SDS011;23758;42.640;23.302;2023-05-20T13:31:51;1.80;;;1.70;;
37931;SDS011;23758;42.640;23.302;2023-05-20T13:34:17;1.65;;;1.55;;
37931;SDS011;23758;42.640;23.302;2023-05-20T13:36:42;1.70;;;1.60;;
37931;SDS011;23758;42.640;23.302;2023-05-20T13:39:08;1.75;;;1.65;;
37931;SDS011;23758;42.640;23.302;2023-05-20T13:41:34;1.90;;;1.80;;
37931;SDS011;23758;42.640;23.302;2023-05-20T13:44:00;1.92;;;1.83;;
37931;SDS011;23758;42.640;23.302;2023-05-20T13:46:25;1.90;;;1.80;;
37931;SDS011;23758;42.640;23.302;2023-05-20T13:48:51;2.13;;;2.03;;
37931;SDS011;23758;42.640;23.302;2023-05-20T13:51:16;2.35;;;2.15;;
37931;SDS011;23758;42.640;23.302;2023-05-20T13:53:42;1.98;;;1.88;;
37931;SDS011;23758;42.640;23.302;2023-05-20T13:56:07;1.90;;;1.80;;
37931;SDS011;23758;42.640;23.302;2023-05-20T13:58:33;2.20;;;2.10;;
37931;SDS011;23758;42.640;23.302;2023-05-20T14:01:00;1.90;;;1.80;;
37931;SDS011;23758;42.640;23.302;2023-05-20T14:03:26;2.00;;;1.90;;
37931;SDS011;23758;42.640;23.302;2023-05-20T14:05:51;2.53;;;2.20;;
37931;SDS011;23758;42.640;23.302;2023-05-20T14:08:17;2.05;;;1.92;;
37931;SDS011;23758;42.640;23.302;2023-05-20T14:10:42;1.90;;;1.80;;
37931;SDS011;23758;42.640;23.302;2023-05-20T14:13:08;1.85;;;1.75;;
37931;SDS011;23758;42.640;23.302;2023-05-20T14:15:34;2.00;;;1.90;;
37931;SDS011;23758;42.640;23.302;2023-05-20T14:18:00;2.10;;;2.00;;
37931;SDS011;23758;42.640;23.302;2023-05-20T14:20:25;2.08;;;1.98;;
37931;SDS011;23758;42.640;23.302;2023-05-20T14:22:51;2.15;;;2.05;;
37931;SDS011;23758;42.640;23.302;2023-05-20T14:25:17;1.90;;;1.80;;
37931;SDS011;23758;42.640;23.302;2023-05-20T14:27:43;2.05;;;1.95;;
37931;SDS011;23758;42.640;23.302;2023-05-20T14:30:08;1.98;;;1.88;;
37931;SDS011;23758;42.640;23.302;2023-05-20T14:32:34;1.67;;;1.58;;
37931;SDS011;23758;42.640;23.302;2023-05-20T14:35:00;1.77;;;1.67;;
37931;SDS011;23758;42.640;23.302;2023-05-20T14:37:25;1.80;;;1.70;;
37931;SDS011;23758;42.640;23.302;2023-05-20T14:39:52;2.95;;;1.95;;
37931;SDS011;23758;42.640;23.302;2023-05-20T14:42:18;2.05;;;1.95;;